Time,TemperatureF,DewpointF,PressureIn,WindDirection,WindDirectionDegrees,WindSpeedMPH,WindSpeedGustMPH,Humidity,HourlyPrecipIn,Conditions,Clouds,dailyrainin,SoftwareType,DateUTC
2013-08-26 00:01:00,81.6,73.3,29.92,West,274,6.9,6.9,76,0.00,CLR,SKC,0.00,WeatherDisplay:10.37,2013-08-26 05:01:00,
2013-08-26 00:06:00,81.5,73.6,29.92,WSW,244,1.2,0.0,77,0.00,CLR,SKC,0.00,WeatherDisplay:10.37,2013-08-26 05:06:00,
2013-08-26 00:11:00,81.4,73.5,29.92,SW,230,10.4,10.4,77,0.00,CLR,SKC,0.00,WeatherDisplay:10.37,2013-08-26 05:11:00,
2013-08-26 00:16:00,81.4,73.5,29.92,SW,217,8.0,8.0,77,0.00,CLR,SKC,0.00,WeatherDisplay:10.37,2013-08-26 05:16:00,
2013-08-26 00:21:00,81.3,73.4,29.92,SW,219,11.5,11.5,77,0.00,CLR,SKC,0.00,WeatherDisplay:10.37,2013-08-26 05:21:00,
2013-08-26 00:26:00,81.2,73.3,29.92,South,176,10.4,10.4,77,0.00,CLR,SKC,0.00,WeatherDisplay:10.37,2013-08-26 05:26:00,
2013-08-26 00:31:00,81.2,73.3,29.92,SSW,194,5.8,5.8,77,0.00,CLR,SKC,0.00,WeatherDisplay:10.37,2013-08-26 05:31:00,
2013-08-26 00:36:00,81.1,73.6,29.91,WSW,240,4.6,4.6,78,0.00,CLR,SKC,0.00,WeatherDisplay:10.37,2013-08-26 05:36:00,
2013-08-26 00:41:00,80.9,73.4,29.92,SSW,198,10.4,10.4,78,0.00,CLR,SKC,0.00,WeatherDisplay:10.37,2013-08-26 05:41:00,
2013-08-26 00:46:00,80.8,73.3,29.92,WSW,246,11.5,11.5,78,0.00,CLR,SKC,0.00,WeatherDisplay:10.37,2013-08-26 05:46:00,
2013-08-26 00:51:00,80.7,73.2,29.92,SW,230,11.5,11.5,78,0.00,CLR,SKC,0.00,WeatherDisplay:10.37,2013-08-26 05:51:00,
2013-08-26 00:56:00,80.5,73.4,29.92,SSW,211,10.4,10.4,79,0.00,CLR,SKC,0.00,WeatherDisplay:10.37,2013-08-26 05:56:00,
2013-08-26 01:01:00,80.4,73.3,29.92,SW,218,9.2,9.2,79,0.00,CLR,SKC,0.00,WeatherDisplay:10.37,2013-08-26 06:01:00,
2013-08-26 01:06:00,80.3,73.2,29.92,SSW,198,10.4,10.4,79,0.00,CLR,SKC,0.00,WeatherDisplay:10.37,2013-08-26 06:06:00,
2013-08-26 01:11:00,80.1,73.4,29.91,WSW,244,5.8,5.8,80,0.00,CLR,SKC,0.00,WeatherDisplay:10.37,2013-08-26 06:11:00,
2013-08-26 01:16:00,80.0,73.3,29.91,SW,220,11.5,11.5,80,0.00,CLR,SKC,0.00,WeatherDisplay:10.37,2013-08-26 06:16:00,
2013-08-26 01:21:00,79.9,73.2,29.92,WSW,237,4.6,4.6,80,0.00,CLR,SKC,0.00,WeatherDisplay:10.37,2013-08-26 06:21:00,
2013-08-26 01:26:00,79.8,73.1,29.91,SSW,213,5.8,5.8,80,0.00,CLR,SKC,0.00,WeatherDisplay:10.37,2013-08-26 06:26:00,
2013-08-26 01:31:00,79.7,73.0,29.92,SW,226,12.7,12.7,80,0.00,CLR,SKC,0.00,WeatherDisplay:10.37,2013-08-26 06:31:00,
2013-08-26 01:36:00,79.6,73.3,29.92,SW,232,10.4,10.4,81,0.00,CLR,SKC,0.00,WeatherDisplay:10.37,2013-08-26 06:36:00,
2013-08-26 01:41:00,79.6,73.3,29.92,SSE,161,0.0,0.4,81,0.00,CLR,SKC,0.00,WeatherDisplay:10.37,2013-08-26 06:41:00,
2013-08-26 01:46:00,79.4,73.1,29.92,SSW,207,6.9,6.9,81,0.00,CLR,SKC,0.00,WeatherDisplay:10.37,2013-08-26 06:46:00,
2013-08-26 01:52:00,79.4,73.1,29.92,SW,227,6.9,6.9,81,0.00,CLR,SKC,0.00,WeatherDisplay:10.37,2013-08-26 06:52:00,
2013-08-26 01:57:00,79.3,73.0,29.92,SW,223,3.5,0.0,81,0.00,CLR,SKC,0.00,WeatherDisplay:10.37,2013-08-26 06:57:00,
2013-08-26 02:02:00,79.1,73.1,29.92,South,188,1.2,1.2,82,0.00,CLR,SKC,0.00,WeatherDisplay:10.37,2013-08-26 07:02:00,
2013-08-26 02:07:00,79.0,73.0,29.92,WSW,240,2.3,2.8,82,0.00,CLR,SKC,0.00,WeatherDisplay:10.37,2013-08-26 07:07:00,
2013-08-26 02:12:00,79.0,73.0,29.92,SSW,200,9.2,9.2,82,0.00,CLR,SKC,0.00,WeatherDisplay:10.37,2013-08-26 07:12:00,
2013-08-26 02:17:00,78.9,72.9,29.92,SSW,207,1.2,3.3,82,0.00,CLR,SKC,0.00,WeatherDisplay:10.37,2013-08-26 07:17:00,
2013-08-26 02:22:00,78.8,72.8,29.92,West,260,9.2,9.2,82,0.00,CLR,SKC,0.00,WeatherDisplay:10.37,2013-08-26 07:22:00,
2013-08-26 02:27:00,78.7,72.7,29.92,South,187,4.6,4.6,82,0.00,CLR,SKC,0.00,WeatherDisplay:10.37,2013-08-26 07:27:00,
2013-08-26 02:32:00,78.7,72.7,29.92,SSW,208,10.4,10.4,82,0.00,CLR,SKC,0.00,WeatherDisplay:10.37,2013-08-26 07:32:00,
2013-08-26 02:37:00,78.7,73.1,29.92,SSW,206,4.6,4.6,83,0.00,CLR,SKC,0.00,WeatherDisplay:10.37,2013-08-26 07:37:00,
2013-08-26 02:42:00,78.6,73.0,29.91,South,191,5.8,5.8,83,0.00,CLR,SKC,0.00,WeatherDisplay:10.37,2013-08-26 07:42:00,
2013-08-26 02:47:00,78.5,72.9,29.91,South,190,11.5,11.5,83,0.00,CLR,SKC,0.00,WeatherDisplay:10.37,2013-08-26 07:47:00,
2013-08-26 02:52:00,78.5,72.9,29.91,SW,221,3.5,3.5,83,0.00,CLR,SKC,0.00,WeatherDisplay:10.37,2013-08-26 07:52:00,
2013-08-26 02:57:00,78.4,72.8,29.91,SE,142,3.5,0.0,83,0.00,CLR,SKC,0.00,WeatherDisplay:10.37,2013-08-26 07:57:00,
2013-08-26 03:02:00,78.3,72.7,29.91,South,178,6.9,6.9,83,0.00,CLR,SKC,0.00,WeatherDisplay:10.37,2013-08-26 08:02:00,
2013-08-26 03:07:00,78.2,73.0,29.91,South,176,0.0,0.0,84,0.00,CLR,SKC,0.00,WeatherDisplay:10.37,2013-08-26 08:07:00,
2013-08-26 03:12:00,78.2,73.0,29.91,ESE,123,1.2,0.0,84,0.00,CLR,SKC,0.00,WeatherDisplay:10.37,2013-08-26 08:12:00,
2013-08-26 03:17:00,78.2,73.0,29.91,SW,229,9.2,9.2,84,0.00,CLR,SKC,0.00,WeatherDisplay:10.37,2013-08-26 08:17:00,
2013-08-26 03:22:00,78.2,72.6,29.91,South,190,9.2,9.2,83,0.00,CLR,SKC,0.00,WeatherDisplay:10.37,2013-08-26 08:22:00,
2013-08-26 03:27:00,78.2,72.6,29.91,South,190,1.2,0.0,83,0.00,CLR,SKC,0.00,WeatherDisplay:10.37,2013-08-26 08:27:00,
2013-08-26 03:32:00,78.2,72.6,29.91,SSE,160,11.5,11.5,83,0.00,CLR,SKC,0.00,WeatherDisplay:10.37,2013-08-26 08:32:00,
2013-08-26 03:37:00,78.1,72.5,29.91,WSW,248,4.6,4.6,83,0.00,CLR,SKC,0.00,WeatherDisplay:10.37,2013-08-26 08:37:00,
2013-08-26 03:42:00,78.1,72.5,29.91,South,169,0.0,0.0,83,0.00,CLR,SKC,0.00,WeatherDisplay:10.37,2013-08-26 08:42:00,
2013-08-26 03:47:00,78.0,72.8,29.91,SW,226,5.8,5.8,84,0.00,CLR,SKC,0.00,WeatherDisplay:10.37,2013-08-26 08:47:00,
2013-08-26 03:52:00,78.0,72.8,29.91,SW,231,11.5,11.5,84,0.00,CLR,SKC,0.00,WeatherDisplay:10.37,2013-08-26 08:52:00,
2013-08-26 03:57:00,78.0,72.8,29.91,SSE,160,4.6,4.6,84,0.00,CLR,SKC,0.00,WeatherDisplay:10.37,2013-08-26 08:57:00,
2013-08-26 04:02:00,78.0,72.8,29.90,South,171,5.8,5.8,84,0.00,CLR,SKC,0.00,WeatherDisplay:10.37,2013-08-26 09:02:00,
2013-08-26 04:07:00,78.0,72.8,29.90,WSW,243,9.2,9.2,84,0.00,CLR,SKC,0.00,WeatherDisplay:10.37,2013-08-26 09:07:00,
2013-08-26 04:12:00,77.9,72.7,29.90,SSW,202,9.2,9.2,84,0.00,CLR,SKC,0.00,WeatherDisplay:10.37,2013-08-26 09:12:00,
2013-08-26 04:17:00,77.9,72.7,29.90,SSE,155,10.4,10.4,84,0.00,CLR,SKC,0.00,WeatherDisplay:10.37,2013-08-26 09:17:00,
2013-08-26 04:22:00,77.9,72.3,29.90,SW,235,5.8,5.8,83,0.00,CLR,SKC,0.00,WeatherDisplay:10.37,2013-08-26 09:22:00,
2013-08-26 04:27:00,77.9,72.3,29.90,SSW,207,9.2,9.2,83,0.00,CLR,SKC,0.00,WeatherDisplay:10.37,2013-08-26 09:27:00,
2013-08-26 04:32:00,77.9,72.3,29.90,SW,215,11.5,11.5,83,0.00,CLR,SKC,0.00,WeatherDisplay:10.37,2013-08-26 09:32:00,
2013-08-26 04:37:00,77.9,72.3,29.90,South,173,5.8,5.8,83,0.00,CLR,SKC,0.00,WeatherDisplay:10.37,2013-08-26 09:37:00,
2013-08-26 04:42:00,77.8,72.2,29.90,South,187,6.9,6.9,83,0.00,CLR,SKC,0.00,WeatherDisplay:10.37,2013-08-26 09:42:00,
2013-08-26 04:47:00,77.8,72.2,29.90,SE,138,5.8,5.8,83,0.00,CLR,SKC,0.00,WeatherDisplay:10.37,2013-08-26 09:47:00,
2013-08-26 04:52:00,77.7,72.1,29.90,SW,227,11.5,11.5,83,0.00,CLR,SKC,0.00,WeatherDisplay:10.37,2013-08-26 09:52:00,
2013-08-26 04:57:00,77.6,72.0,29.90,SSW,206,5.8,5.8,83,0.00,CLR,SKC,0.00,WeatherDisplay:10.37,2013-08-26 09:57:00,
2013-08-26 05:02:00,77.6,72.4,29.90,South,175,5.8,5.8,84,0.00,CLR,SKC,0.00,WeatherDisplay:10.37,2013-08-26 10:02:00,
2013-08-26 05:07:00,77.5,72.3,29.90,SSW,193,3.5,0.0,84,0.00,CLR,SKC,0.00,WeatherDisplay:10.37,2013-08-26 10:07:00,
2013-08-26 05:12:00,77.4,72.2,29.90,SSW,209,0.0,0.0,84,0.00,CLR,SKC,0.00,WeatherDisplay:10.37,2013-08-26 10:12:00,
2013-08-26 05:17:00,77.3,72.1,29.90,SW,216,1.2,0.0,84,0.00,CLR,SKC,0.00,WeatherDisplay:10.37,2013-08-26 10:17:00,
2013-08-26 05:22:00,77.3,72.1,29.90,SW,219,11.5,11.5,84,0.00,CLR,SKC,0.00,WeatherDisplay:10.37,2013-08-26 10:22:00,
2013-08-26 05:27:00,77.3,72.1,29.90,SW,234,3.5,0.0,84,0.00,CLR,SKC,0.00,WeatherDisplay:10.37,2013-08-26 10:27:00,
2013-08-26 05:32:00,77.2,72.0,29.90,SW,235,10.4,10.4,84,0.00,CLR,SKC,0.00,WeatherDisplay:10.37,2013-08-26 10:32:00,
2013-08-26 05:37:00,77.1,71.9,29.90,South,186,3.5,0.0,84,0.00,CLR,SKC,0.00,WeatherDisplay:10.37,2013-08-26 10:37:00,
2013-08-26 05:42:00,77.0,71.8,29.90,SSW,209,5.8,5.8,84,0.00,CLR,SKC,0.00,WeatherDisplay:10.37,2013-08-26 10:42:00,
2013-08-26 05:47:00,76.9,71.7,29.91,West,263,9.2,9.2,84,0.00,CLR,SKC,0.00,WeatherDisplay:10.37,2013-08-26 10:47:00,
2013-08-26 05:52:00,76.8,71.6,29.91,SW,233,1.2,1.2,84,0.00,CLR,SKC,0.00,WeatherDisplay:10.37,2013-08-26 10:52:00,
2013-08-26 05:57:00,76.7,71.8,29.91,SW,223,3.5,3.5,85,0.00,CLR,SKC,0.00,WeatherDisplay:10.37,2013-08-26 10:57:00,
2013-08-26 06:02:00,76.6,71.7,29.92,SW,217,6.9,0.0,85,0.00,CLR,SKC,0.00,WeatherDisplay:10.37,2013-08-26 11:02:00,
2013-08-26 06:07:00,76.5,71.7,29.92,WSW,249,5.8,0.0,85,0.00,CLR,SKC,0.00,WeatherDisplay:10.37,2013-08-26 11:07:00,
2013-08-26 06:12:00,76.4,71.6,29.92,WSW,240,1.2,0.0,85,0.00,CLR,SKC,0.00,WeatherDisplay:10.37,2013-08-26 11:12:00,
2013-08-26 06:17:00,76.3,71.5,29.92,WSW,240,0.0,0.0,85,0.00,CLR,SKC,0.00,WeatherDisplay:10.37,2013-08-26 11:17:00,
2013-08-26 06:22:00,76.1,71.3,29.92,WSW,240,0.0,0.0,85,0.00,CLR,SKC,0.00,WeatherDisplay:10.37,2013-08-26 11:22:00,
2013-08-26 06:27:00,76.0,71.2,29.92,WSW,240,0.0,0.0,85,0.00,CLR,SKC,0.00,WeatherDisplay:10.37,2013-08-26 11:27:00,
2013-08-26 06:32:00,75.9,71.4,29.92,WSW,240,1.2,0.0,86,0.00,CLR,SKC,0.00,WeatherDisplay:10.37,2013-08-26 11:32:00,
2013-08-26 06:37:00,75.9,71.4,29.92,SW,236,0.0,0.0,86,0.00,CLR,SKC,0.00,WeatherDisplay:10.37,2013-08-26 11:37:00,
2013-08-26 06:42:00,75.8,71.3,29.92,SW,236,0.0,0.0,86,0.00,CLR,SKC,0.00,WeatherDisplay:10.37,2013-08-26 11:42:00,
2013-08-26 06:47:00,75.8,71.3,29.92,SW,219,0.0,0.0,86,0.00,CLR,SKC,0.00,WeatherDisplay:10.37,2013-08-26 11:47:00,
2013-08-26 06:52:00,75.7,71.2,29.93,SSW,206,0.0,0.0,86,0.00,CLR,SKC,0.00,WeatherDisplay:10.37,2013-08-26 11:52:00,
2013-08-26 06:57:00,75.7,71.2,29.92,SSW,207,0.0,0.0,86,0.00,CLR,SKC,0.00,WeatherDisplay:10.37,2013-08-26 11:57:00,
2013-08-26 07:02:00,75.7,71.2,29.93,SSW,206,0.0,0.0,86,0.00,CLR,SKC,0.00,WeatherDisplay:10.37,2013-08-26 12:02:00,
2013-08-26 07:07:00,75.7,71.6,29.93,South,172,0.0,0.0,87,0.00,CLR,SKC,0.00,WeatherDisplay:10.37,2013-08-26 12:07:00,
2013-08-26 07:12:00,75.8,71.3,29.93,ESE,120,4.6,0.0,86,0.00,CLR,SKC,0.00,WeatherDisplay:10.37,2013-08-26 12:12:00,
2013-08-26 07:17:00,75.9,71.4,29.93,ESE,121,0.0,0.0,86,0.00,CLR,SKC,0.00,WeatherDisplay:10.37,2013-08-26 12:17:00,
2013-08-26 07:22:00,76.0,71.5,29.93,South,182,0.0,0.0,86,0.00,CLR,SKC,0.00,WeatherDisplay:10.37,2013-08-26 12:22:00,
2013-08-26 07:27:00,76.2,71.7,29.93,South,176,0.0,0.0,86,0.00,CLR,SKC,0.00,WeatherDisplay:10.37,2013-08-26 12:27:00,
2013-08-26 07:32:00,76.5,71.7,29.93,SSE,159,0.0,0.8,85,0.00,CLR,SKC,0.00,WeatherDisplay:10.37,2013-08-26 12:32:00,
2013-08-26 07:38:00,76.8,71.6,29.93,South,169,5.8,5.8,84,0.00,CLR,SKC,0.00,WeatherDisplay:10.37,2013-08-26 12:38:00,
2013-08-26 07:43:00,77.1,71.9,29.94,South,171,1.2,0.0,84,0.00,CLR,SKC,0.00,WeatherDisplay:10.37,2013-08-26 12:43:00,
2013-08-26 07:48:00,77.4,71.8,29.94,South,171,0.0,0.0,83,0.00,CLR,SKC,0.00,WeatherDisplay:10.37,2013-08-26 12:48:00,
2013-08-26 07:53:00,77.6,71.7,29.93,SSE,161,4.6,0.0,82,0.00,CLR,SKC,0.00,WeatherDisplay:10.37,2013-08-26 12:53:00,
2013-08-26 07:58:00,77.9,72.0,29.93,South,177,0.0,0.0,82,0.00,CLR,SKC,0.00,WeatherDisplay:10.37,2013-08-26 12:58:00,
2013-08-26 08:03:00,78.2,71.9,29.94,SSE,164,5.8,0.0,81,0.00,CLR,SKC,0.00,WeatherDisplay:10.37,2013-08-26 13:03:00,
2013-08-26 08:08:00,78.4,72.1,29.94,West,261,1.2,1.2,81,0.00,CLR,SKC,0.00,WeatherDisplay:10.37,2013-08-26 13:08:00,
2013-08-26 08:13:00,78.5,71.8,29.94,SSW,193,1.2,0.0,80,0.00,CLR,SKC,0.00,WeatherDisplay:10.37,2013-08-26 13:13:00,
2013-08-26 08:18:00,78.4,71.7,29.94,SSW,205,1.0,1.3,80,0.00,CLR,SKC,0.00,WeatherDisplay:10.37,2013-08-26 13:18:00,
2013-08-26 08:23:00,78.4,71.7,29.94,SSE,168,0.0,0.0,80,0.00,CLR,SKC,0.00,WeatherDisplay:10.37,2013-08-26 13:23:00,
2013-08-26 08:28:00,78.4,71.7,29.94,SSW,211,0.0,0.0,80,0.00,CLR,SKC,0.00,WeatherDisplay:10.37,2013-08-26 13:28:00,
2013-08-26 08:33:00,78.5,71.8,29.94,SSE,157,0.0,0.0,80,0.00,CLR,SKC,0.00,WeatherDisplay:10.37,2013-08-26 13:33:00,
2013-08-26 08:38:00,78.7,72.0,29.94,SE,137,0.0,0.0,80,0.00,CLR,SKC,0.00,WeatherDisplay:10.37,2013-08-26 13:38:00,
2013-08-26 08:43:00,78.7,71.6,29.94,SW,227,6.9,0.0,79,0.00,CLR,SKC,0.00,WeatherDisplay:10.37,2013-08-26 13:43:00,
2013-08-26 08:48:00,79.1,72.0,29.93,WSW,250,4.6,4.6,79,0.00,CLR,SKC,0.00,WeatherDisplay:10.37,2013-08-26 13:48:00,
2013-08-26 08:53:00,79.6,72.1,29.93,SSE,161,4.0,4.0,78,0.00,CLR,SKC,0.00,WeatherDisplay:10.37,2013-08-26 13:53:00,
2013-08-26 08:58:00,79.9,72.0,29.93,SSE,153,0.0,0.0,77,0.00,CLR,SKC,0.00,WeatherDisplay:10.37,2013-08-26 13:58:00,
2013-08-26 09:03:00,80.1,72.2,29.93,ESE,123,2.3,0.0,77,0.00,CLR,SKC,0.00,WeatherDisplay:10.37,2013-08-26 14:03:00,
2013-08-26 09:08:00,80.6,72.3,29.93,South,183,3.5,3.5,76,0.00,CLR,SKC,0.00,WeatherDisplay:10.37,2013-08-26 14:08:00,
2013-08-26 09:13:00,81.1,72.4,29.93,WNW,295,1.2,0.0,75,0.00,CLR,SKC,0.00,WeatherDisplay:10.37,2013-08-26 14:13:00,
2013-08-26 09:18:00,81.7,72.6,29.92,SW,214,2.3,2.3,74,0.00,CLR,SKC,0.00,WeatherDisplay:10.37,2013-08-26 14:18:00,
2013-08-26 09:23:00,82.1,72.6,29.93,South,185,0.0,0.0,73,0.00,CLR,SKC,0.00,WeatherDisplay:10.37,2013-08-26 14:23:00,
2013-08-26 09:28:00,82.2,72.3,29.92,SSW,192,9.2,9.2,72,0.00,CLR,SKC,0.00,WeatherDisplay:10.37,2013-08-26 14:28:00,
2013-08-26 09:33:00,82.3,72.4,29.92,WSW,257,3.5,3.5,72,0.00,CLR,SKC,0.00,WeatherDisplay:10.37,2013-08-26 14:33:00,
2013-08-26 09:38:00,82.5,72.6,29.92,WSW,238,1.2,0.0,72,0.00,CLR,SKC,0.00,WeatherDisplay:10.37,2013-08-26 14:38:00,
2013-08-26 09:43:00,83.0,72.6,29.92,SW,232,0.0,0.0,71,0.00,CLR,SKC,0.00,WeatherDisplay:10.37,2013-08-26 14:43:00,
2013-08-26 09:48:00,83.5,73.1,29.92,SSW,205,1.2,1.2,71,0.00,CLR,SKC,0.00,WeatherDisplay:10.37,2013-08-26 14:48:00,
2013-08-26 09:53:00,83.6,72.8,29.92,West,265,5.8,5.8,70,0.00,CLR,SKC,0.00,WeatherDisplay:10.37,2013-08-26 14:53:00,
2013-08-26 09:58:00,83.6,72.8,29.92,SSE,160,5.8,5.8,70,0.00,CLR,SKC,0.00,WeatherDisplay:10.37,2013-08-26 14:58:00,
2013-08-26 10:03:00,83.7,72.4,29.92,South,169,8.1,8.1,69,0.00,CLR,SKC,0.00,WeatherDisplay:10.37,2013-08-26 15:03:00,
2013-08-26 10:08:00,83.7,72.4,29.92,SSW,200,5.8,5.8,69,0.00,CLR,SKC,0.00,WeatherDisplay:10.37,2013-08-26 15:08:00,
2013-08-26 10:13:00,84.1,72.8,29.92,SSW,211,0.0,0.0,69,0.00,CLR,SKC,0.00,WeatherDisplay:10.37,2013-08-26 15:13:00,
2013-08-26 10:18:00,84.5,72.8,29.92,SW,215,2.3,2.3,68,0.00,CLR,SKC,0.00,WeatherDisplay:10.37,2013-08-26 15:18:00,
2013-08-26 10:23:00,84.9,72.7,29.92,South,178,0.0,0.3,67,0.00,CLR,SKC,0.00,WeatherDisplay:10.37,2013-08-26 15:23:00,
2013-08-26 10:28:00,85.0,72.8,29.92,SSW,206,10.4,10.4,67,0.00,CLR,SKC,0.00,WeatherDisplay:10.37,2013-08-26 15:28:00,
2013-08-26 10:33:00,85.1,72.5,29.92,SSW,211,4.6,4.6,66,0.00,CLR,SKC,0.00,WeatherDisplay:10.37,2013-08-26 15:33:00,
2013-08-26 10:38:00,85.5,73.3,29.92,South,190,1.2,1.2,67,0.00,CLR,SKC,0.00,WeatherDisplay:10.37,2013-08-26 15:38:00,
2013-08-26 10:43:00,85.9,72.8,29.92,WSW,237,4.6,4.6,65,0.00,CLR,SKC,0.00,WeatherDisplay:10.37,2013-08-26 15:43:00,
2013-08-26 10:48:00,86.5,73.3,29.92,SSE,161,0.0,0.0,65,0.00,CLR,SKC,0.00,WeatherDisplay:10.37,2013-08-26 15:48:00,
2013-08-26 10:53:00,86.4,72.8,29.92,SW,236,5.8,5.8,64,0.00,CLR,SKC,0.00,WeatherDisplay:10.37,2013-08-26 15:53:00,
2013-08-26 10:58:00,86.5,73.3,29.92,South,173,1.2,1.5,65,0.00,CLR,SKC,0.00,WeatherDisplay:10.37,2013-08-26 15:58:00,
2013-08-26 11:03:00,86.8,72.7,29.92,South,175,3.5,3.5,63,0.00,CLR,SKC,0.00,WeatherDisplay:10.37,2013-08-26 16:03:00,
2013-08-26 11:08:00,86.6,72.0,29.92,SSE,154,5.8,5.8,62,0.00,CLR,SKC,0.00,WeatherDisplay:10.37,2013-08-26 16:08:00,
2013-08-26 11:13:00,86.7,73.1,29.92,SW,214,0.0,0.0,64,0.00,CLR,SKC,0.00,WeatherDisplay:10.37,2013-08-26 16:13:00,
2013-08-26 11:18:00,87.2,73.1,29.92,SSE,163,2.3,2.3,63,0.00,CLR,SKC,0.00,WeatherDisplay:10.37,2013-08-26 16:18:00,
2013-08-26 11:23:00,87.5,72.9,29.92,South,183,0.0,0.0,62,0.00,CLR,SKC,0.00,WeatherDisplay:10.37,2013-08-26 16:23:00,
2013-08-26 11:28:00,87.7,72.6,29.91,SSE,161,5.8,5.8,61,0.00,CLR,SKC,0.00,WeatherDisplay:10.37,2013-08-26 16:28:00,
2013-08-26 11:33:00,87.9,72.8,29.92,West,261,1.2,1.2,61,0.00,CLR,SKC,0.00,WeatherDisplay:10.37,2013-08-26 16:33:00,
2013-08-26 11:38:00,88.0,72.9,29.92,SW,216,10.4,10.4,61,0.00,CLR,SKC,0.00,WeatherDisplay:10.37,2013-08-26 16:38:00,
2013-08-26 11:43:00,87.8,72.7,29.92,SW,218,9.2,9.2,61,0.00,CLR,SKC,0.00,WeatherDisplay:10.37,2013-08-26 16:43:00,
2013-08-26 11:48:00,88.1,73.4,29.91,SSW,194,4.6,0.0,62,0.00,CLR,SKC,0.00,WeatherDisplay:10.37,2013-08-26 16:48:00,
2013-08-26 11:53:00,88.4,73.2,29.91,SSW,198,11.5,11.5,61,0.00,CLR,SKC,0.00,WeatherDisplay:10.37,2013-08-26 16:53:00,
2013-08-26 11:58:00,88.3,73.1,29.91,South,189,4.6,4.6,61,0.00,CLR,SKC,0.00,WeatherDisplay:10.37,2013-08-26 16:58:00,
2013-08-26 12:03:00,88.4,73.2,29.91,SW,219,6.9,6.9,61,0.00,CLR,SKC,0.00,WeatherDisplay:10.37,2013-08-26 17:03:00,
2013-08-26 12:08:00,88.6,73.9,29.91,South,180,3.5,3.5,62,0.00,CLR,SKC,0.00,WeatherDisplay:10.37,2013-08-26 17:08:00,
2013-08-26 12:13:00,88.8,74.1,29.91,SSE,168,5.8,5.8,62,0.00,CLR,SKC,0.00,WeatherDisplay:10.37,2013-08-26 17:13:00,
2013-08-26 12:18:00,89.1,73.9,29.91,West,271,1.2,0.0,61,0.00,CLR,SKC,0.00,WeatherDisplay:10.37,2013-08-26 17:18:00,
2013-08-26 12:23:00,89.7,73.5,29.90,SW,232,1.0,1.0,59,0.00,CLR,SKC,0.00,WeatherDisplay:10.37,2013-08-26 17:23:00,
2013-08-26 12:28:00,89.9,73.7,29.90,SSW,207,4.6,4.6,59,0.00,CLR,SKC,0.00,WeatherDisplay:10.37,2013-08-26 17:28:00,
2013-08-26 12:33:00,89.6,73.9,29.90,SW,216,6.9,0.0,60,0.00,CLR,SKC,0.00,WeatherDisplay:10.37,2013-08-26 17:33:00,
2013-08-26 12:38:00,90.1,74.3,29.90,East,87,2.3,2.3,60,0.00,CLR,SKC,0.00,WeatherDisplay:10.37,2013-08-26 17:38:00,
2013-08-26 12:43:00,90.2,73.9,29.90,SSE,168,6.9,6.9,59,0.00,CLR,SKC,0.00,WeatherDisplay:10.37,2013-08-26 17:43:00,
2013-08-26 12:48:00,89.7,74.5,29.90,SSE,155,0.0,0.0,61,0.00,CLR,SKC,0.00,WeatherDisplay:10.37,2013-08-26 17:48:00,
2013-08-26 12:53:00,89.4,74.2,29.90,SSE,152,6.9,6.9,61,0.00,CLR,SKC,0.00,WeatherDisplay:10.37,2013-08-26 17:53:00,
2013-08-26 12:58:00,89.8,74.1,29.90,SSE,152,1.2,0.0,60,0.00,CLR,SKC,0.00,WeatherDisplay:10.37,2013-08-26 17:58:00,
2013-08-26 13:03:00,90.0,74.2,29.90,SSW,210,4.6,4.6,60,0.00,CLR,SKC,0.00,WeatherDisplay:10.37,2013-08-26 18:03:00,
2013-08-26 13:08:00,90.4,74.1,29.90,SE,138,5.8,5.8,59,0.00,CLR,SKC,0.00,WeatherDisplay:10.37,2013-08-26 18:08:00,
2013-08-26 13:13:00,90.5,74.7,29.90,East,96,6.9,6.9,60,0.00,CLR,SKC,0.00,WeatherDisplay:10.37,2013-08-26 18:13:00,
2013-08-26 13:18:00,90.5,74.2,29.89,South,169,1.2,1.2,59,0.00,CLR,SKC,0.00,WeatherDisplay:10.37,2013-08-26 18:18:00,
2013-08-26 13:24:00,90.9,74.6,29.89,SW,218,3.5,3.5,59,0.00,CLR,SKC,0.00,WeatherDisplay:10.37,2013-08-26 18:24:00,
2013-08-26 13:29:00,91.0,74.2,29.89,SW,227,10.4,10.4,58,0.00,CLR,SKC,0.00,WeatherDisplay:10.37,2013-08-26 18:29:00,
2013-08-26 13:34:00,91.0,74.7,29.89,SW,233,10.4,0.0,59,0.00,CLR,SKC,0.00,WeatherDisplay:10.37,2013-08-26 18:34:00,
2013-08-26 13:39:00,91.2,73.8,29.88,SW,232,9.2,9.2,57,0.00,CLR,SKC,0.00,WeatherDisplay:10.37,2013-08-26 18:39:00,
2013-08-26 13:44:00,91.2,74.9,29.88,SSE,157,9.0,9.0,59,0.00,CLR,SKC,0.00,WeatherDisplay:10.37,2013-08-26 18:44:00,
2013-08-26 13:49:00,91.1,74.3,29.88,SSE,167,6.9,6.9,58,0.00,CLR,SKC,0.00,WeatherDisplay:10.37,2013-08-26 18:49:00,
2013-08-26 13:54:00,91.2,74.9,29.88,SSE,149,3.5,3.5,59,0.00,CLR,SKC,0.00,WeatherDisplay:10.37,2013-08-26 18:54:00,
2013-08-26 13:59:00,91.8,74.9,29.87,ESE,122,0.0,0.0,58,0.00,CLR,SKC,0.00,WeatherDisplay:10.37,2013-08-26 18:59:00,
2013-08-26 14:04:00,91.8,74.9,29.87,SSE,155,0.0,2.7,58,0.00,CLR,SKC,0.00,WeatherDisplay:10.37,2013-08-26 19:04:00,
2013-08-26 14:09:00,92.2,75.3,29.87,SW,218,3.5,3.5,58,0.00,CLR,SKC,0.00,WeatherDisplay:10.37,2013-08-26 19:09:00,
2013-08-26 14:14:00,92.3,75.4,29.87,ESE,119,3.5,0.0,58,0.00,CLR,SKC,0.00,WeatherDisplay:10.37,2013-08-26 19:14:00,
2013-08-26 14:19:00,92.8,74.8,29.87,SW,215,11.5,11.5,56,0.00,CLR,SKC,0.00,WeatherDisplay:10.37,2013-08-26 19:19:00,
2013-08-26 14:24:00,92.6,74.6,29.86,SSE,151,10.4,10.4,56,0.00,CLR,SKC,0.00,WeatherDisplay:10.37,2013-08-26 19:24:00,
2013-08-26 14:29:00,93.0,75.0,29.86,SSE,150,5.8,5.8,56,0.00,CLR,SKC,0.00,WeatherDisplay:10.37,2013-08-26 19:29:00,
2013-08-26 14:34:00,92.1,74.7,29.86,SSW,199,6.9,6.9,57,0.00,CLR,SKC,0.00,WeatherDisplay:10.37,2013-08-26 19:34:00,
2013-08-26 14:39:00,91.7,74.8,29.86,SE,125,10.4,10.4,58,0.00,CLR,SKC,0.00,WeatherDisplay:10.37,2013-08-26 19:39:00,
2013-08-26 14:44:00,91.1,74.3,29.86,SSE,163,11.5,11.5,58,0.00,CLR,SKC,0.00,WeatherDisplay:10.37,2013-08-26 19:44:00,
2013-08-26 14:49:00,91.0,74.2,29.86,SE,144,1.2,0.0,58,0.00,CLR,SKC,0.00,WeatherDisplay:10.37,2013-08-26 19:49:00,
2013-08-26 14:54:00,91.2,74.9,29.85,SSW,196,8.1,8.1,59,0.00,CLR,SKC,0.00,WeatherDisplay:10.37,2013-08-26 19:54:00,
2013-08-26 14:59:00,91.3,75.0,29.85,SSW,198,11.5,11.5,59,0.00,CLR,SKC,0.00,WeatherDisplay:10.37,2013-08-26 19:59:00,
2013-08-26 15:04:00,91.8,75.4,29.85,SSE,163,0.0,0.0,59,0.00,CLR,SKC,0.00,WeatherDisplay:10.37,2013-08-26 20:04:00,
2013-08-26 15:09:00,92.6,75.1,29.85,South,190,18.4,18.4,57,0.00,CLR,SKC,0.00,WeatherDisplay:10.37,2013-08-26 20:09:00,
2013-08-26 15:14:00,92.8,74.8,29.85,SSW,205,9.2,9.2,56,0.00,CLR,SKC,0.00,WeatherDisplay:10.37,2013-08-26 20:14:00,
2013-08-26 15:19:00,92.6,75.1,29.84,South,190,11.5,11.5,57,0.00,CLR,SKC,0.00,WeatherDisplay:10.37,2013-08-26 20:19:00,
2013-08-26 15:24:00,92.7,75.2,29.84,SSW,202,3.5,3.5,57,0.00,CLR,SKC,0.00,WeatherDisplay:10.37,2013-08-26 20:24:00,
2013-08-26 15:29:00,92.9,75.4,29.84,South,176,10.4,10.4,57,0.00,CLR,SKC,0.00,WeatherDisplay:10.37,2013-08-26 20:29:00,
2013-08-26 15:34:00,93.1,75.1,29.84,SE,134,5.8,5.8,56,0.00,CLR,SKC,0.00,WeatherDisplay:10.37,2013-08-26 20:34:00,
2013-08-26 15:39:00,93.2,75.7,29.84,South,169,16.1,16.1,57,0.00,CLR,SKC,0.00,WeatherDisplay:10.37,2013-08-26 20:39:00,
2013-08-26 15:44:00,92.9,75.9,29.84,South,180,5.8,5.8,58,0.00,CLR,SKC,0.00,WeatherDisplay:10.37,2013-08-26 20:44:00,
2013-08-26 15:49:00,92.8,75.8,29.84,SSE,148,4.6,4.6,58,0.00,CLR,SKC,0.00,WeatherDisplay:10.37,2013-08-26 20:49:00,
2013-08-26 15:54:00,93.3,75.8,29.84,SSW,207,11.5,11.5,57,0.00,CLR,SKC,0.00,WeatherDisplay:10.37,2013-08-26 20:54:00,
2013-08-26 15:59:00,93.8,76.3,29.83,WSW,248,6.9,6.9,57,0.00,CLR,SKC,0.00,WeatherDisplay:10.37,2013-08-26 20:59:00,
2013-08-26 16:04:00,93.9,76.4,29.83,SSE,150,2.3,2.3,57,0.00,CLR,SKC,0.00,WeatherDisplay:10.37,2013-08-26 21:04:00,
2013-08-26 16:09:00,93.5,76.5,29.83,SW,226,10.4,10.4,58,0.00,CLR,SKC,0.00,WeatherDisplay:10.37,2013-08-26 21:09:00,
2013-08-26 16:14:00,92.9,75.9,29.83,South,182,11.5,11.5,58,0.00,CLR,SKC,0.00,WeatherDisplay:10.37,2013-08-26 21:14:00,
2013-08-26 16:19:00,93.1,75.6,29.83,WSW,244,11.5,11.5,57,0.00,CLR,SKC,0.00,WeatherDisplay:10.37,2013-08-26 21:19:00,
2013-08-26 16:24:00,93.2,75.2,29.83,SW,223,10.4,10.4,56,0.00,CLR,SKC,0.00,WeatherDisplay:10.37,2013-08-26 21:24:00,
2013-08-26 16:29:00,93.1,75.1,29.83,South,171,11.5,11.5,56,0.00,CLR,SKC,0.00,WeatherDisplay:10.37,2013-08-26 21:29:00,
2013-08-26 16:34:00,93.3,76.3,29.83,South,169,0.0,0.0,58,0.00,CLR,SKC,0.00,WeatherDisplay:10.37,2013-08-26 21:34:00,
2013-08-26 16:39:00,93.5,76.0,29.83,SW,230,5.8,5.8,57,0.00,CLR,SKC,0.00,WeatherDisplay:10.37,2013-08-26 21:39:00,
2013-08-26 16:44:00,93.6,76.6,29.83,South,180,5.8,5.8,58,0.00,CLR,SKC,0.00,WeatherDisplay:10.37,2013-08-26 21:44:00,
2013-08-26 16:49:00,93.6,76.6,29.83,SSE,158,4.6,4.6,58,0.00,CLR,SKC,0.00,WeatherDisplay:10.37,2013-08-26 21:49:00,
2013-08-26 16:54:00,93.2,76.7,29.83,SE,134,3.5,3.5,59,0.00,CLR,SKC,0.00,WeatherDisplay:10.37,2013-08-26 21:54:00,
2013-08-26 16:59:00,93.3,76.8,29.83,South,187,4.6,4.6,59,0.00,CLR,SKC,0.00,WeatherDisplay:10.37,2013-08-26 21:59:00,
2013-08-26 17:04:00,93.2,76.7,29.82,SSE,167,9.2,9.2,59,0.00,CLR,SKC,0.00,WeatherDisplay:10.37,2013-08-26 22:04:00,
2013-08-26 17:09:00,92.7,76.8,29.82,SSE,155,2.3,2.3,60,0.00,CLR,SKC,0.00,WeatherDisplay:10.37,2013-08-26 22:09:00,
2013-08-26 17:14:00,92.7,77.3,29.82,SSE,155,0.0,0.0,61,0.00,CLR,SKC,0.00,WeatherDisplay:10.37,2013-08-26 22:14:00,
2013-08-26 17:19:00,92.5,77.1,29.82,South,171,6.9,6.9,61,0.00,CLR,SKC,0.00,WeatherDisplay:10.37,2013-08-26 22:19:00,
2013-08-26 17:24:00,92.6,77.2,29.82,SE,136,4.0,4.0,61,0.00,CLR,SKC,0.00,WeatherDisplay:10.37,2013-08-26 22:24:00,
2013-08-26 17:29:00,92.8,77.9,29.82,SE,145,5.8,5.8,62,0.00,CLR,SKC,0.00,WeatherDisplay:10.37,2013-08-26 22:29:00,
2013-08-26 17:34:00,92.8,77.4,29.82,South,174,5.8,5.8,61,0.00,CLR,SKC,0.00,WeatherDisplay:10.37,2013-08-26 22:34:00,
2013-08-26 17:39:00,92.5,77.6,29.81,WSW,238,2.3,0.0,62,0.00,CLR,SKC,0.00,WeatherDisplay:10.37,2013-08-26 22:39:00,
2013-08-26 17:44:00,92.5,77.1,29.81,South,175,2.3,2.3,61,0.00,CLR,SKC,0.00,WeatherDisplay:10.37,2013-08-26 22:44:00,
2013-08-26 17:49:00,92.8,77.4,29.81,South,171,3.5,3.5,61,0.00,CLR,SKC,0.00,WeatherDisplay:10.37,2013-08-26 22:49:00,
2013-08-26 17:54:00,92.4,77.0,29.80,SSE,166,11.5,11.5,61,0.00,CLR,SKC,0.00,WeatherDisplay:10.37,2013-08-26 22:54:00,
2013-08-26 17:59:00,91.7,76.3,29.80,West,269,9.2,9.2,61,0.00,CLR,SKC,0.00,WeatherDisplay:10.37,2013-08-26 22:59:00,
2013-08-26 18:04:00,91.1,76.3,29.80,SSE,155,10.4,10.4,62,0.00,CLR,SKC,0.00,WeatherDisplay:10.37,2013-08-26 23:04:00,
2013-08-26 18:09:00,90.9,76.1,29.79,South,172,15.0,15.0,62,0.00,CLR,SKC,0.00,WeatherDisplay:10.37,2013-08-26 23:09:00,
2013-08-26 18:14:00,90.9,76.1,29.79,South,181,7.0,7.0,62,0.00,CLR,SKC,0.00,WeatherDisplay:10.37,2013-08-26 23:14:00,
2013-08-26 18:19:00,90.9,76.1,29.79,WSW,246,5.8,5.8,62,0.00,CLR,SKC,0.00,WeatherDisplay:10.37,2013-08-26 23:19:00,
2013-08-26 18:24:00,90.9,76.1,29.79,SSE,164,9.2,9.2,62,0.00,CLR,SKC,0.00,WeatherDisplay:10.37,2013-08-26 23:24:00,
2013-08-26 18:29:00,90.9,76.6,29.79,West,267,6.9,6.9,63,0.00,CLR,SKC,0.00,WeatherDisplay:10.37,2013-08-26 23:29:00,
2013-08-26 18:34:00,90.7,76.4,29.79,SSE,157,4.6,4.6,63,0.00,CLR,SKC,0.00,WeatherDisplay:10.37,2013-08-26 23:34:00,
2013-08-26 18:39:00,90.4,76.6,29.79,WSW,238,0.0,0.4,64,0.00,CLR,SKC,0.00,WeatherDisplay:10.37,2013-08-26 23:39:00,
2013-08-26 18:44:00,90.3,76.5,29.79,SSW,209,2.3,0.0,64,0.00,CLR,SKC,0.00,WeatherDisplay:10.37,2013-08-26 23:44:00,
2013-08-26 18:49:00,90.2,76.4,29.79,South,187,1.2,0.0,64,0.00,CLR,SKC,0.00,WeatherDisplay:10.37,2013-08-26 23:49:00,
2013-08-26 18:54:00,89.6,76.3,29.79,SSE,163,11.5,11.5,65,0.00,CLR,SKC,0.00,WeatherDisplay:10.37,2013-08-26 23:54:00,
2013-08-26 18:59:00,89.0,76.2,29.79,South,178,3.5,3.5,66,0.00,CLR,SKC,0.00,WeatherDisplay:10.37,2013-08-26 23:59:00,
2013-08-26 19:04:00,88.6,75.8,29.79,SSE,157,4.6,4.6,66,0.00,CLR,SKC,0.00,WeatherDisplay:10.37,2013-08-27 00:04:00,
2013-08-26 19:09:00,88.4,76.0,29.78,SSE,155,10.4,10.4,67,0.00,CLR,SKC,0.00,WeatherDisplay:10.37,2013-08-27 00:09:00,
2013-08-26 19:14:00,88.3,75.9,29.79,SE,134,11.5,11.5,67,0.00,CLR,SKC,0.00,WeatherDisplay:10.37,2013-08-27 00:14:00,
2013-08-26 19:19:00,88.2,75.9,29.79,SSW,196,6.9,6.9,67,0.00,CLR,SKC,0.00,WeatherDisplay:10.37,2013-08-27 00:19:00,
2013-08-26 19:25:00,88.0,75.7,29.79,South,171,5.8,5.8,67,0.00,CLR,SKC,0.00,WeatherDisplay:10.37,2013-08-27 00:25:00,
2013-08-26 19:30:00,87.6,75.7,29.78,SSE,159,18.4,18.4,68,0.00,CLR,SKC,0.00,WeatherDisplay:10.37,2013-08-27 00:30:00,
2013-08-26 19:35:00,87.3,75.4,29.79,SE,140,4.6,4.7,68,0.00,CLR,SKC,0.00,WeatherDisplay:10.37,2013-08-27 00:35:00,
2013-08-26 19:40:00,87.1,75.7,29.79,South,184,3.5,3.5,69,0.00,CLR,SKC,0.00,WeatherDisplay:10.37,2013-08-27 00:40:00,
2013-08-26 19:45:00,87.0,75.6,29.79,SE,141,3.5,3.5,69,0.00,CLR,SKC,0.00,WeatherDisplay:10.37,2013-08-27 00:45:00,
2013-08-26 19:50:00,86.7,75.3,29.79,South,169,4.6,4.6,69,0.00,CLR,SKC,0.00,WeatherDisplay:10.37,2013-08-27 00:50:00,
2013-08-26 19:55:00,86.5,75.1,29.79,SSE,167,5.8,5.8,69,0.00,CLR,SKC,0.00,WeatherDisplay:10.37,2013-08-27 00:55:00,
2013-08-26 20:00:00,86.3,75.4,29.79,SSW,200,11.5,11.5,70,0.00,CLR,SKC,0.00,WeatherDisplay:10.37,2013-08-27 01:00:00,
2013-08-26 20:05:00,86.1,75.2,29.79,South,190,11.5,11.5,70,0.00,CLR,SKC,0.00,WeatherDisplay:10.37,2013-08-27 01:05:00,
2013-08-26 20:10:00,85.9,75.4,29.79,SSE,161,2.0,2.0,71,0.00,CLR,SKC,0.00,WeatherDisplay:10.37,2013-08-27 01:10:00,
2013-08-26 20:15:00,85.7,75.2,29.79,South,180,6.9,6.9,71,0.00,CLR,SKC,0.00,WeatherDisplay:10.37,2013-08-27 01:15:00,
2013-08-26 20:20:00,85.6,75.1,29.79,SW,221,0.0,0.0,71,0.00,CLR,SKC,0.00,WeatherDisplay:10.37,2013-08-27 01:20:00,
2013-08-26 20:25:00,85.4,74.9,29.79,South,176,11.5,11.5,71,0.00,CLR,SKC,0.00,WeatherDisplay:10.37,2013-08-27 01:25:00,
2013-08-26 20:30:00,85.3,75.2,29.78,SW,226,5.8,5.8,72,0.00,CLR,SKC,0.00,WeatherDisplay:10.37,2013-08-27 01:30:00,
2013-08-26 20:35:00,85.2,75.1,29.78,SW,235,4.6,4.6,72,0.00,CLR,SKC,0.00,WeatherDisplay:10.37,2013-08-27 01:35:00,
2013-08-26 20:40:00,85.1,75.1,29.78,SSE,155,9.2,9.2,72,0.00,CLR,SKC,0.00,WeatherDisplay:10.37,2013-08-27 01:40:00,
2013-08-26 20:45:00,85.0,75.0,29.79,SE,139,0.0,0.0,72,0.00,CLR,SKC,0.00,WeatherDisplay:10.37,2013-08-27 01:45:00,
2013-08-26 20:50:00,84.9,74.9,29.79,SSE,158,0.0,0.0,72,0.00,CLR,SKC,0.00,WeatherDisplay:10.37,2013-08-27 01:50:00,
2013-08-26 20:55:00,84.8,74.8,29.80,South,182,6.9,6.9,72,0.00,CLR,SKC,0.00,WeatherDisplay:10.37,2013-08-27 01:55:00,
2013-08-26 21:00:00,84.8,74.8,29.79,SSW,209,9.2,9.2,72,0.00,CLR,SKC,0.00,WeatherDisplay:10.37,2013-08-27 02:00:00,
2013-08-26 21:05:00,84.8,74.8,29.80,SSE,149,5.8,5.8,72,0.00,CLR,SKC,0.00,WeatherDisplay:10.37,2013-08-27 02:05:00,
2013-08-26 21:10:00,84.7,75.1,29.80,ESE,106,0.0,0.0,73,0.00,CLR,SKC,0.00,WeatherDisplay:10.37,2013-08-27 02:10:00,
2013-08-26 21:15:00,84.6,75.0,29.80,SSE,163,1.2,0.0,73,0.00,CLR,SKC,0.00,WeatherDisplay:10.37,2013-08-27 02:15:00,
2013-08-26 21:20:00,84.6,75.0,29.81,SSE,152,1.2,1.2,73,0.00,CLR,SKC,0.00,WeatherDisplay:10.37,2013-08-27 02:20:00,
2013-08-26 21:25:00,84.5,74.9,29.80,ESE,102,6.9,6.9,73,0.00,CLR,SKC,0.00,WeatherDisplay:10.37,2013-08-27 02:25:00,
2013-08-26 21:30:00,84.4,74.8,29.80,SSE,147,11.5,11.5,73,0.00,CLR,SKC,0.00,WeatherDisplay:10.37,2013-08-27 02:30:00,
2013-08-26 21:35:00,84.4,74.8,29.80,SSE,148,1.2,1.2,73,0.00,CLR,SKC,0.00,WeatherDisplay:10.37,2013-08-27 02:35:00,
2013-08-26 21:40:00,84.2,74.6,29.80,SSE,158,5.0,5.0,73,0.00,CLR,SKC,0.00,WeatherDisplay:10.37,2013-08-27 02:40:00,
2013-08-26 21:45:00,84.0,74.8,29.80,SE,146,1.2,1.2,74,0.00,CLR,SKC,0.00,WeatherDisplay:10.37,2013-08-27 02:45:00,
2013-08-26 21:50:00,83.9,74.7,29.80,SE,136,6.9,6.9,74,0.00,CLR,SKC,0.00,WeatherDisplay:10.37,2013-08-27 02:50:00,
2013-08-26 21:55:00,84.0,74.8,29.80,SW,224,3.5,3.5,74,0.00,CLR,SKC,0.00,WeatherDisplay:10.37,2013-08-27 02:55:00,
2013-08-26 22:00:00,83.9,74.7,29.80,SW,227,5.8,5.8,74,0.00,CLR,SKC,0.00,WeatherDisplay:10.37,2013-08-27 03:00:00,
2013-08-26 22:05:00,83.8,74.6,29.80,SSW,213,0.0,0.0,74,0.00,CLR,SKC,0.00,WeatherDisplay:10.37,2013-08-27 03:05:00,
2013-08-26 22:10:00,83.8,74.6,29.80,SE,136,1.2,1.2,74,0.00,CLR,SKC,0.00,WeatherDisplay:10.37,2013-08-27 03:10:00,
2013-08-26 22:15:00,83.7,74.5,29.80,SW,225,1.2,0.0,74,0.00,CLR,SKC,0.00,WeatherDisplay:10.37,2013-08-27 03:15:00,
2013-08-26 22:20:00,83.6,74.4,29.80,SSE,149,3.5,3.5,74,0.00,CLR,SKC,0.00,WeatherDisplay:10.37,2013-08-27 03:20:00,
2013-08-26 22:25:00,83.5,74.3,29.80,South,173,3.5,0.0,74,0.00,CLR,SKC,0.00,WeatherDisplay:10.37,2013-08-27 03:25:00,
2013-08-26 22:30:00,83.5,74.3,29.80,SE,142,11.5,11.5,74,0.00,CLR,SKC,0.00,WeatherDisplay:10.37,2013-08-27 03:30:00,
2013-08-26 22:35:00,83.4,74.2,29.79,SSE,159,6.9,6.9,74,0.00,CLR,SKC,0.00,WeatherDisplay:10.37,2013-08-27 03:35:00,
2013-08-26 22:40:00,83.3,74.5,29.79,SSW,207,10.4,10.4,75,0.00,CLR,SKC,0.00,WeatherDisplay:10.37,2013-08-27 03:40:00,
2013-08-26 22:45:00,83.2,74.4,29.79,South,188,11.5,11.5,75,0.00,CLR,SKC,0.00,WeatherDisplay:10.37,2013-08-27 03:45:00,
2013-08-26 22:50:00,83.0,74.3,29.79,South,178,11.5,11.5,75,0.00,CLR,SKC,0.00,WeatherDisplay:10.37,2013-08-27 03:50:00,
2013-08-26 22:55:00,82.9,74.2,29.79,South,187,4.6,0.0,75,0.00,CLR,SKC,0.00,WeatherDisplay:10.37,2013-08-27 03:55:00,
2013-08-26 23:00:00,82.8,74.1,29.79,ESE,109,3.5,3.5,75,0.00,CLR,SKC,0.00,WeatherDisplay:10.37,2013-08-27 04:00:00,
2013-08-26 23:01:00,82.8,74.1,29.79,SSW,198,3.5,3.5,75,0.00,CLR,SKC,0.00,WeatherDisplay:10.37,2013-08-27 04:01:00,
2013-08-26 23:06:00,82.7,74.0,29.79,SSE,162,4.6,4.6,75,0.00,CLR,SKC,0.00,WeatherDisplay:10.37,2013-08-27 04:06:00,
2013-08-26 23:11:00,82.7,74.4,29.79,SSW,210,1.2,0.0,76,0.00,CLR,SKC,0.00,WeatherDisplay:10.37,2013-08-27 04:11:00,
2013-08-26 23:16:00,82.6,74.3,29.79,SSW,194,4.6,4.6,76,0.00,CLR,SKC,0.00,WeatherDisplay:10.37,2013-08-27 04:16:00,
2013-08-26 23:21:00,82.5,74.2,29.79,SSW,198,0.0,0.1,76,0.00,CLR,SKC,0.00,WeatherDisplay:10.37,2013-08-27 04:21:00,
2013-08-26 23:26:00,82.4,74.1,29.79,SSW,205,3.5,0.0,76,0.00,CLR,SKC,0.00,WeatherDisplay:10.37,2013-08-27 04:26:00,
2013-08-26 23:31:00,82.4,74.1,29.79,South,190,4.6,4.6,76,0.00,CLR,SKC,0.00,WeatherDisplay:10.37,2013-08-27 04:31:00,
2013-08-26 23:36:00,82.3,74.0,29.79,SSE,168,0.0,0.0,76,0.00,CLR,SKC,0.00,WeatherDisplay:10.37,2013-08-27 04:36:00,
2013-08-26 23:41:00,82.2,73.9,29.79,South,179,5.8,5.8,76,0.00,CLR,SKC,0.00,WeatherDisplay:10.37,2013-08-27 04:41:00,
2013-08-26 23:46:00,82.2,73.9,29.79,South,182,0.0,0.2,76,0.00,CLR,SKC,0.00,WeatherDisplay:10.37,2013-08-27 04:46:00,
2013-08-26 23:51:00,82.1,73.8,29.79,SW,225,0.0,0.1,76,0.00,CLR,SKC,0.00,WeatherDisplay:10.37,2013-08-27 04:51:00,
2013-08-26 23:56:00,82.1,73.8,29.79,South,177,0.0,0.0,76,0.00,CLR,SKC,0.00,WeatherDisplay:10.37,2013-08-27 04:56:00,